createdAt,value
2024-05-09T00:01:38.403Z,102764.28
2024-05-09T00:04:10.007Z,102768.63
2024-05-09T00:06:44.148Z,102766.88
2024-05-09T00:09:18.263Z,102759.06
2024-05-09T00:11:52.088Z,102759.03
2024-05-09T00:14:26.478Z,102754.66
2024-05-09T00:17:04.245Z,102759.88
2024-05-09T00:19:37.472Z,102761.56
2024-05-09T00:22:13.720Z,102764.16
2024-05-09T00:24:49.644Z,102764.19
2024-05-09T00:27:26.964Z,102764.13
2024-05-09T00:30:07.098Z,102761.53
2024-05-09T00:32:43.239Z,102759.75
2024-05-09T00:35:17.430Z,102764.97
2024-05-09T00:37:51.026Z,102755.41
2024-05-09T00:40:34.691Z,102770.13
2024-05-09T00:43:16.452Z,102761.44
2024-05-09T00:45:55.569Z,102757.94
2024-05-09T00:48:30.101Z,102754.44
2024-05-09T00:51:06.627Z,102757.06
2024-05-09T00:53:41.380Z,102747.47
2024-05-09T00:56:17.268Z,102750.94
2024-05-09T00:58:52.718Z,102745.69
2024-05-09T01:01:32.699Z,102752.63
2024-05-09T01:04:05.733Z,102744.75
2024-05-09T01:06:43.765Z,102752.31
2024-05-09T01:09:20.861Z,102750.59
2024-05-09T01:11:55.007Z,102753.00
2024-05-09T01:14:28.571Z,102753.81
2024-05-09T01:17:04.617Z,102757.28
2024-05-09T01:19:39.543Z,102758.22
2024-05-09T01:22:14.594Z,102766.63
2024-05-09T01:24:56.232Z,102767.28
2024-05-09T01:27:30.905Z,102763.91
2024-05-09T01:30:11.936Z,102761.41
2024-05-09T06:28:51.284Z,102728.22
2024-05-09T06:31:24.876Z,102724.75
2024-05-09T06:33:59.032Z,102726.41
2024-05-09T06:36:30.560Z,102721.13
2024-05-09T06:39:03.009Z,102713.97
2024-05-09T06:41:34.749Z,102711.16
2024-05-09T06:44:12.870Z,102719.00
2024-05-09T06:46:42.430Z,102711.91
2024-05-09T06:49:18.625Z,102711.94
2024-05-09T06:51:49.668Z,102704.00
2024-05-09T06:54:23.704Z,102707.41
2024-05-09T06:56:54.397Z,102705.47
2024-05-09T06:59:31.198Z,102705.34
2024-05-09T07:02:01.339Z,102702.78
2024-05-09T07:04:35.536Z,102698.53
2024-05-09T07:07:07.714Z,102700.13
2024-05-09T07:09:41.834Z,102705.22
2024-05-09T07:12:14.042Z,102713.19
2024-05-09T07:14:53.768Z,102717.38
2024-05-09T07:17:30.527Z,102703.19
2024-05-09T07:20:22.936Z,102704.78
2024-05-09T07:23:16.243Z,102700.69
2024-05-09T07:25:52.663Z,102694.91
2024-05-09T07:28:24.255Z,102685.03
2024-05-09T07:31:12.845Z,102694.44
2024-05-09T07:34:24.193Z,102696.19
2024-05-09T07:45:39.018Z,102694.03
2024-05-09T07:53:08.041Z,102680.28
2024-05-09T07:54:01.854Z,102690.72
2024-05-09T08:00:32.145Z,102681.72
2024-05-09T08:07:33.052Z,102678.00
2024-05-09T08:10:30.802Z,102682.41
2024-05-09T08:13:12.287Z,102671.66
2024-05-09T08:15:50.264Z,102668.97
2024-05-09T08:18:24.540Z,102669.00
2024-05-09T08:21:19.860Z,102661.03
2024-05-09T08:23:54.161Z,102657.03
2024-05-09T08:26:32.681Z,102663.34
2024-05-09T08:29:05.362Z,102656.16
2024-05-09T08:31:45.115Z,102653.16
2024-05-09T08:34:21.971Z,102663.72
2024-05-09T08:36:57.551Z,102652.63
2024-05-09T08:39:31.375Z,102654.13
2024-05-09T08:42:04.669Z,102648.81
2024-05-09T08:44:36.002Z,102655.06
2024-05-09T08:47:10.945Z,102653.78
2024-05-09T08:49:41.692Z,102655.84
2024-05-09T08:52:18.919Z,102652.19
2024-05-09T08:54:52.397Z,102649.41
2024-05-09T08:57:25.748Z,102661.94
2024-05-09T08:59:57.025Z,102651.81
2024-05-09T09:02:31.738Z,102643.84
2024-05-09T09:05:04.088Z,102649.09
2024-05-09T09:07:38.712Z,102656.28
2024-05-09T09:10:21.097Z,102648.97
2024-05-09T09:13:00.730Z,102658.94
2024-05-09T09:15:32.691Z,102641.94
2024-05-09T09:18:04.943Z,102646.16
2024-05-09T09:20:38.140Z,102646.88
2024-05-09T09:23:13.025Z,102641.22
2024-05-09T09:25:47.819Z,102643.03
2024-05-09T09:28:21.036Z,102639.91
2024-05-09T09:30:51.546Z,102642.06
2024-05-09T09:33:26.378Z,102639.97
2024-05-09T09:35:57.160Z,102638.16
2024-05-09T09:38:32.057Z,102633.91
2024-05-09T09:41:06.181Z,102629.13
2024-05-09T09:43:39.535Z,102627.88
2024-05-09T09:46:13.136Z,102631.59
2024-05-09T09:48:46.933Z,102621.78
2024-05-09T09:51:17.902Z,102630.28
2024-05-09T09:53:51.073Z,102629.66
2024-05-09T09:56:23.893Z,102622.28
2024-05-09T09:58:57.297Z,102622.06
2024-05-09T10:01:27.539Z,102633.53
2024-05-09T10:04:00.985Z,102629.53
2024-05-09T10:06:35.578Z,102624.00
2024-05-09T10:09:08.394Z,102624.16
2024-05-09T10:11:49.157Z,102620.44
2024-05-09T10:14:25.558Z,102624.09
2024-05-09T10:17:03.996Z,102619.94
2024-05-09T10:19:37.162Z,102611.78
2024-05-09T10:22:09.035Z,102609.97
2024-05-09T10:24:52.524Z,102605.63
2024-05-09T10:27:31.054Z,102604.66
2024-05-09T10:30:11.500Z,102597.81
2024-05-09T10:32:45.465Z,102594.91
2024-05-09T10:35:19.678Z,102594.38
2024-05-09T10:37:48.242Z,102595.66
2024-05-09T10:40:29.118Z,102590.19
2024-05-09T10:43:06.357Z,102591.72
2024-05-09T10:45:39.876Z,102591.75
2024-05-09T10:48:11.334Z,102592.00
2024-05-09T10:50:47.217Z,102590.75
2024-05-09T10:53:19.266Z,102585.66
2024-05-09T10:55:58.617Z,102581.75
2024-05-09T10:58:32.016Z,102585.75
2024-05-09T11:01:07.406Z,102577.00
2024-05-09T11:03:35.997Z,102567.81
2024-05-09T11:06:10.993Z,102579.88
2024-05-09T11:08:45.180Z,102575.47
2024-05-09T11:11:18.472Z,102562.22
2024-05-09T11:13:51.738Z,102563.44
2024-05-09T11:16:24.618Z,102569.69
2024-05-09T11:18:56.152Z,102569.66
2024-05-09T11:21:29.480Z,102555.19
2024-05-09T11:24:05.992Z,102564.78
2024-05-09T11:26:45.761Z,102553.78
2024-05-09T11:29:20.252Z,102546.63
2024-05-09T11:31:55.993Z,102546.03
2024-05-09T11:34:27.783Z,102548.91
2024-05-09T11:37:00.830Z,102541.59
2024-05-09T11:39:32.383Z,102545.22
2024-05-09T11:42:05.679Z,102545.38
2024-05-09T11:44:36.110Z,102538.78
2024-05-09T11:47:12.661Z,102538.31
2024-05-09T11:49:43.255Z,102539.16
2024-05-09T11:52:16.501Z,102526.50
2024-05-09T11:54:47.042Z,102521.44
2024-05-09T11:57:20.442Z,102514.97
2024-05-09T11:59:54.094Z,102522.31
2024-05-09T12:02:29.958Z,102533.97
2024-05-09T12:05:01.387Z,102525.00
2024-05-09T12:07:34.880Z,102532.66
2024-05-09T12:10:11.712Z,102520.94
2024-05-09T12:12:45.739Z,102524.59
2024-05-09T12:15:19.286Z,102528.19
2024-05-09T12:17:54.257Z,102527.53
2024-05-09T12:20:34.384Z,102515.31
2024-05-09T12:23:11.471Z,102529.97
2024-05-09T12:25:46.685Z,102529.19
2024-05-09T12:28:26.705Z,102518.06
2024-05-09T12:31:01.061Z,102514.31
2024-05-09T12:33:38.279Z,102512.22
2024-05-09T12:36:12.215Z,102501.47
2024-05-09T12:38:52.487Z,102504.75
2024-05-09T12:41:26.878Z,102496.94
2024-05-09T12:44:02.105Z,102498.53
2024-05-09T12:46:36.244Z,102496.88
2024-05-09T12:49:10.535Z,102495.97
2024-05-09T12:51:41.179Z,102496.94
2024-05-09T12:54:12.647Z,102495.47
2024-05-09T12:56:43.956Z,102499.00
2024-05-09T12:59:17.609Z,102501.09
2024-05-09T13:01:50.933Z,102491.56
2024-05-09T13:04:25.019Z,102491.34
2024-05-09T13:06:55.754Z,102486.28
2024-05-09T13:09:32.364Z,102494.06
2024-05-09T13:12:03.220Z,102486.28
2024-05-09T13:14:39.190Z,102477.28
2024-05-09T13:17:14.090Z,102488.75
2024-05-09T13:19:47.206Z,102480.34
2024-05-09T13:22:17.795Z,102475.09
2024-05-09T13:24:51.222Z,102471.16
2024-05-09T13:27:21.332Z,102473.16
2024-05-09T13:29:57.614Z,102466.19
2024-05-09T13:32:33.669Z,102467.25
2024-05-09T13:35:07.802Z,102468.88
2024-05-09T13:37:38.203Z,102462.13
2024-05-09T13:40:14.213Z,102451.50
2024-05-09T13:42:45.663Z,102450.84
2024-05-09T13:45:20.161Z,102443.50
2024-05-09T13:47:54.014Z,102452.50
2024-05-09T13:50:33.606Z,102440.03
2024-05-09T13:53:10.023Z,102439.94
2024-05-09T13:55:39.988Z,102436.53
2024-05-09T13:58:14.982Z,102431.38
2024-05-09T14:00:49.084Z,102431.50
2024-05-09T14:03:27.193Z,102425.25
2024-05-09T14:05:57.724Z,102433.59
2024-05-09T14:08:30.837Z,102423.88
2024-05-09T14:11:01.096Z,102432.78
2024-05-09T14:13:34.921Z,102426.22
2024-05-09T14:16:05.904Z,102429.72
2024-05-09T14:18:41.625Z,102430.44
2024-05-09T14:21:11.558Z,102418.63
2024-05-09T14:23:45.042Z,102430.59
2024-05-09T14:26:16.753Z,102426.84
2024-05-09T14:28:51.174Z,102432.69
2024-05-09T14:31:21.326Z,102426.97
2024-05-09T14:33:57.060Z,102428.56
2024-05-09T14:36:25.069Z,102411.75
2024-05-09T14:39:02.617Z,102411.50
2024-05-09T14:41:32.791Z,102415.50
2024-05-09T14:44:08.910Z,102406.31
2024-05-09T14:46:39.014Z,102414.59
2024-05-09T14:49:18.349Z,102402.22
2024-05-09T14:51:51.254Z,102405.59
2024-05-09T14:54:24.795Z,102406.94
2024-05-09T14:56:58.564Z,102400.34
2024-05-09T14:59:31.491Z,102393.94
2024-05-09T15:02:05.040Z,102398.31
2024-05-09T15:04:41.101Z,102395.66
2024-05-09T15:07:16.781Z,102389.31
2024-05-09T15:09:50.404Z,102388.19
2024-05-09T15:12:25.020Z,102387.00
2024-05-09T15:14:57.755Z,102390.63
2024-05-09T15:17:28.779Z,102386.63
2024-05-09T15:20:09.218Z,102381.84
2024-05-09T15:22:43.576Z,102385.78
2024-05-09T15:25:17.274Z,102390.50
2024-05-09T15:27:47.391Z,102394.41
2024-05-09T15:30:28.219Z,102401.25
2024-05-09T15:33:06.916Z,102400.22
2024-05-09T15:35:46.767Z,102399.44
2024-05-09T15:38:18.588Z,102395.25
2024-05-09T15:40:52.148Z,102396.41
2024-05-09T15:43:20.319Z,102393.06
2024-05-09T15:45:53.379Z,102395.56
2024-05-09T15:48:24.007Z,102392.88
2024-05-09T15:51:01.156Z,102394.16
2024-05-09T15:53:34.107Z,102387.09
2024-05-09T15:56:04.028Z,102388.81
2024-05-09T15:58:37.375Z,102383.47
2024-05-09T16:01:07.449Z,102380.47
2024-05-09T16:03:40.643Z,102378.75
2024-05-09T16:06:13.804Z,102376.06
2024-05-09T16:08:47.066Z,102375.13
2024-05-09T16:11:17.735Z,102375.22
2024-05-09T16:13:50.053Z,102369.75
2024-05-09T16:16:24.027Z,102374.25
2024-05-09T16:18:56.521Z,102366.44
2024-05-09T16:21:29.439Z,102365.66
2024-05-09T16:24:02.139Z,102367.88
2024-05-09T16:26:32.029Z,102364.97
2024-05-09T16:29:05.009Z,102365.06
2024-05-09T16:31:35.508Z,102365.19
2024-05-09T16:34:08.250Z,102364.19
2024-05-09T16:36:53.002Z,102367.75
2024-05-09T16:39:29.932Z,102371.56
2024-05-09T16:42:00.033Z,102357.72
2024-05-09T16:44:35.540Z,102363.84
2024-05-09T16:47:06.498Z,102363.16
2024-05-09T16:49:39.678Z,102366.34
2024-05-09T16:52:13.242Z,102362.81
2024-05-09T16:54:46.901Z,102368.47
2024-05-09T16:57:17.075Z,102362.72
2024-05-09T16:59:52.313Z,102363.75
2024-05-09T17:02:25.572Z,102371.50
2024-05-09T17:04:58.891Z,102367.44
2024-05-09T17:07:31.436Z,102375.97
2024-05-09T17:10:08.243Z,102370.59
2024-05-09T17:12:39.931Z,102372.66
2024-05-09T17:15:13.055Z,102373.78
2024-05-09T17:17:46.154Z,102374.97
2024-05-09T17:20:29.562Z,102377.00
2024-05-09T17:23:13.676Z,102377.94
2024-05-09T17:25:48.383Z,102375.47
2024-05-09T17:28:18.499Z,102373.59
2024-05-09T17:30:54.199Z,102368.09
2024-05-09T17:33:26.274Z,102366.34
2024-05-09T17:35:59.474Z,102364.66
2024-05-09T17:38:32.589Z,102370.91
2024-05-09T17:41:06.490Z,102365.16
2024-05-09T17:43:37.563Z,102367.84
2024-05-09T17:46:14.641Z,102356.63
2024-05-09T17:48:45.472Z,102359.38
2024-05-09T17:51:18.550Z,102351.56
2024-05-09T17:53:52.144Z,102353.28
2024-05-09T17:56:26.852Z,102351.56
2024-05-09T17:58:59.307Z,102353.59
2024-05-09T18:01:32.279Z,102363.78
2024-05-09T18:04:02.524Z,102354.16
2024-05-09T18:06:35.972Z,102360.22
2024-05-09T18:09:09.233Z,102358.28
2024-05-09T18:11:43.457Z,102346.00
2024-05-09T18:14:13.870Z,102349.63
2024-05-09T18:16:46.693Z,102354.84
2024-05-09T18:19:17.105Z,102353.94
2024-05-09T18:21:51.959Z,102355.59
2024-05-09T18:24:27.443Z,102353.22
2024-05-09T18:27:03.337Z,102355.84
2024-05-09T18:29:33.689Z,102362.13
2024-05-09T18:32:06.976Z,102360.47
2024-05-09T18:34:37.414Z,102363.13
2024-05-09T18:37:10.414Z,102365.88
2024-05-09T18:39:45.170Z,102359.06
2024-05-09T18:42:18.336Z,102358.28
2024-05-09T18:44:48.896Z,102353.78
2024-05-09T18:47:22.955Z,102361.97
2024-05-09T18:49:55.116Z,102363.75
2024-05-09T18:52:28.346Z,102364.63
2024-05-09T18:55:01.203Z,102362.28
2024-05-09T18:57:35.048Z,102362.88
2024-05-09T19:00:19.349Z,102361.88
2024-05-09T19:03:00.576Z,102375.75
2024-05-09T19:05:30.961Z,102367.03
2024-05-09T19:08:05.178Z,102363.53
2024-05-09T19:10:39.027Z,102363.56
2024-05-09T19:13:13.883Z,102366.31
2024-05-09T19:15:45.368Z,102371.84
2024-05-09T19:18:18.846Z,102364.78
2024-05-09T19:20:49.832Z,102365.69
2024-05-09T19:23:23.523Z,102368.59
2024-05-09T19:25:57.825Z,102364.28
2024-05-09T19:28:31.772Z,102367.88
2024-05-09T19:31:00.437Z,102366.88
2024-05-09T19:33:35.156Z,102372.97
2024-05-09T19:36:03.728Z,102370.34
2024-05-09T19:38:37.896Z,102367.69
2024-05-09T19:41:11.049Z,102372.09
2024-05-09T19:43:44.948Z,102365.81
2024-05-09T19:46:16.529Z,102373.75
2024-05-09T19:48:51.344Z,102373.88
2024-05-09T19:51:19.942Z,102370.59
2024-05-09T19:53:55.482Z,102369.69
2024-05-09T19:56:28.844Z,102374.13
2024-05-09T19:59:01.850Z,102373.41
2024-05-09T20:01:32.184Z,102374.41
2024-05-09T20:04:05.352Z,102377.06
2024-05-09T20:06:37.676Z,102373.69
2024-05-09T20:09:10.771Z,102374.66
2024-05-09T20:11:47.591Z,102372.06
2024-05-09T20:14:17.567Z,102377.19
2024-05-09T20:16:50.877Z,102373.69
2024-05-09T20:19:21.328Z,102373.56
2024-05-09T20:21:54.253Z,102376.09
2024-05-09T20:24:24.930Z,102372.59
2024-05-09T20:27:03.585Z,102369.03
2024-05-09T20:29:36.345Z,102371.56
2024-05-09T20:32:09.770Z,102375.84
2024-05-09T20:34:41.252Z,102367.41
2024-05-09T20:37:14.602Z,102378.00
2024-05-09T20:39:45.275Z,102372.81
2024-05-09T20:42:21.081Z,102371.91
2024-05-09T20:44:51.558Z,102370.09
2024-05-09T20:47:24.248Z,102370.19
2024-05-09T20:49:55.368Z,102373.56
2024-05-09T20:52:28.227Z,102373.69
2024-05-09T20:54:58.262Z,102377.31
2024-05-09T20:57:34.132Z,102361.56
2024-05-09T21:00:12.059Z,102366.91
2024-05-09T21:02:50.953Z,102374.78
2024-05-09T21:05:21.510Z,102373.84
2024-05-09T21:07:55.038Z,102368.63
2024-05-09T21:10:26.365Z,102374.88
2024-05-09T21:13:03.424Z,102369.75
2024-05-09T21:15:34.184Z,102379.47
2024-05-09T21:18:07.268Z,102377.78
2024-05-09T21:20:38.016Z,102379.63
2024-05-09T21:23:12.101Z,102379.72
2024-05-09T21:25:42.471Z,102373.66
2024-05-09T21:28:19.414Z,102381.56
2024-05-09T21:30:49.372Z,102382.34
2024-05-09T21:33:22.386Z,102385.00
2024-05-09T21:35:52.814Z,102380.72
2024-05-09T21:38:25.889Z,102380.78
2024-05-09T21:40:56.236Z,102379.06
2024-05-09T21:43:34.576Z,102370.41
2024-05-09T21:46:04.713Z,102373.06
2024-05-09T21:48:39.259Z,102374.00
2024-05-09T21:51:13.978Z,102373.06
2024-05-09T21:53:46.619Z,102374.84
2024-05-09T21:56:17.239Z,102367.03
2024-05-09T21:58:54.968Z,102365.25
2024-05-09T22:01:26.545Z,102370.41
2024-05-09T22:04:00.246Z,102367.88
2024-05-09T22:06:30.926Z,102362.56
2024-05-09T22:09:05.873Z,102366.09
2024-05-09T22:11:37.007Z,102371.38
2024-05-09T22:14:12.696Z,102374.06
2024-05-09T22:16:42.876Z,102363.63
2024-05-09T22:19:15.595Z,102363.63
2024-05-09T22:21:45.602Z,102363.66
2024-05-09T22:24:18.478Z,102357.59
2024-05-09T22:26:48.215Z,102367.19
2024-05-09T22:29:22.169Z,102378.63
2024-05-09T22:31:51.981Z,102370.91
2024-05-09T22:34:25.112Z,102384.03
2024-05-09T22:36:55.975Z,102379.69
2024-05-09T22:39:28.551Z,102373.56
2024-05-09T22:41:58.422Z,102373.50
2024-05-09T22:44:34.566Z,102372.53
2024-05-09T22:47:04.639Z,102371.66
2024-05-09T22:49:35.726Z,102367.28
2024-05-09T22:52:06.040Z,102374.38
2024-05-09T22:54:41.224Z,102368.25
2024-05-09T22:57:11.173Z,102369.16
2024-05-09T22:59:46.647Z,102369.13
2024-05-09T23:02:16.959Z,102363.81
2024-05-09T23:04:50.353Z,102356.72
2024-05-09T23:07:19.953Z,102354.13
2024-05-09T23:09:52.883Z,102350.59
2024-05-09T23:12:22.870Z,102352.63
2024-05-09T23:15:00.428Z,102350.84
2024-05-09T23:17:30.578Z,102357.81
2024-05-09T23:20:05.265Z,102343.84
2024-05-09T23:22:39.015Z,102337.72
2024-05-09T23:25:12.168Z,102336.84
2024-05-09T23:27:42.539Z,102335.97
2024-05-09T23:30:29.147Z,102334.25
2024-05-09T23:33:07.081Z,102333.38
2024-05-09T23:35:42.362Z,102325.53
2024-05-09T23:38:11.834Z,102325.56
2024-05-09T23:40:45.401Z,102326.53
2024-05-09T23:43:14.390Z,102316.88
2024-05-09T23:45:49.874Z,102316.06
2024-05-09T23:48:20.103Z,102325.69
2024-05-09T23:50:50.688Z,102317.91
2024-05-09T23:53:21.531Z,102325.72
2024-05-09T23:55:56.740Z,102331.88
2024-05-09T23:58:29.309Z,102335.63
